createdAt,value
2022-12-14T00:01:54.434Z,6.43
2022-12-14T00:04:21.993Z,7.13
2022-12-14T00:06:49.541Z,6.93
2022-12-14T00:09:17.111Z,6.50
2022-12-14T00:11:44.569Z,2.97
2022-12-14T00:14:12.118Z,4.57
2022-12-14T00:16:39.616Z,4.03
2022-12-14T00:19:07.130Z,2.80
2022-12-14T00:21:34.770Z,2.83
2022-12-14T00:24:02.500Z,2.70
2022-12-14T00:26:32.019Z,2.40
2022-12-14T00:29:01.922Z,3.17
2022-12-14T00:31:31.462Z,2.80
2022-12-14T00:33:59.649Z,2.67
2022-12-14T00:36:27.639Z,3.45
2022-12-14T00:38:55.157Z,3.70
2022-12-14T00:41:22.787Z,6.35
2022-12-14T00:43:50.432Z,7.35
2022-12-14T00:46:18.587Z,8.10
2022-12-14T00:48:46.513Z,7.57
2022-12-14T00:51:15.366Z,6.65
2022-12-14T00:53:45.306Z,7.00
2022-12-14T00:56:12.920Z,8.10
2022-12-14T00:58:40.505Z,5.32
2022-12-14T01:01:14.661Z,6.38
2022-12-14T01:03:42.898Z,7.07
2022-12-14T01:06:19.789Z,5.63
2022-12-14T01:08:48.683Z,5.55
2022-12-14T01:11:16.259Z,5.72
2022-12-14T01:13:43.867Z,4.32
2022-12-14T01:16:15.551Z,4.35
2022-12-14T01:18:44.014Z,3.88
2022-12-14T01:21:16.370Z,4.45
2022-12-14T01:23:44.867Z,4.03
2022-12-14T01:26:14.037Z,4.50
2022-12-14T01:28:42.065Z,6.25
2022-12-14T01:31:12.510Z,6.90
2022-12-14T01:33:40.260Z,6.68
2022-12-14T01:36:13.068Z,7.18
2022-12-14T01:38:40.852Z,8.40
2022-12-14T01:41:09.952Z,8.18
2022-12-14T01:43:58.886Z,9.43
2022-12-14T01:46:32.228Z,6.40
2022-12-14T01:49:28.957Z,6.03
2022-12-14T01:51:57.250Z,11.18
2022-12-14T01:54:27.204Z,10.73
2022-12-14T01:56:55.536Z,13.02
2022-12-14T01:59:31.714Z,11.85
2022-12-14T02:02:02.462Z,11.57
2022-12-14T02:04:30.659Z,9.80
2022-12-14T02:07:01.278Z,8.75
2022-12-14T02:09:32.716Z,8.95
2022-12-14T02:12:11.912Z,9.50
2022-12-14T02:14:40.175Z,12.25
2022-12-14T02:17:09.020Z,10.70
2022-12-14T02:19:38.189Z,5.40
2022-12-14T02:22:24.828Z,8.30
2022-12-14T02:25:26.037Z,7.78
2022-12-14T02:28:20.853Z,5.60
2022-12-14T02:31:00.640Z,4.30
2022-12-14T02:33:39.033Z,4.50
2022-12-14T02:36:32.093Z,6.05
2022-12-14T02:39:28.294Z,5.13
2022-12-14T02:42:11.334Z,4.82
2022-12-14T02:45:10.074Z,4.65
2022-12-14T02:47:48.160Z,3.85
2022-12-14T02:50:37.223Z,2.88
2022-12-14T02:53:41.016Z,4.13
2022-12-14T02:56:14.431Z,4.78
2022-12-14T02:58:49.198Z,6.10
2022-12-14T03:01:22.535Z,6.65
2022-12-14T03:03:50.237Z,3.88
2022-12-14T03:06:27.424Z,6.18
2022-12-14T03:09:11.528Z,4.90
2022-12-14T03:11:52.519Z,2.85
2022-12-14T03:14:27.664Z,3.45
2022-12-14T03:17:01.527Z,3.55
2022-12-14T03:22:30.312Z,3.65
2022-12-14T03:25:14.775Z,3.42
2022-12-14T03:27:52.059Z,2.47
2022-12-14T03:30:37.231Z,3.60
2022-12-14T03:33:14.232Z,2.90
2022-12-14T03:38:33.757Z,2.13
2022-12-14T03:41:11.088Z,2.80
2022-12-14T03:43:57.049Z,2.35
2022-12-14T03:46:48.078Z,3.75
2022-12-14T03:49:37.863Z,2.97
2022-12-14T03:52:20.764Z,4.15
2022-12-14T03:55:10.661Z,2.67
2022-12-14T03:57:47.105Z,4.50
2022-12-14T04:00:19.268Z,3.78
2022-12-14T04:02:58.859Z,4.95
2022-12-14T04:05:48.582Z,2.33
2022-12-14T04:08:45.754Z,2.60
2022-12-14T04:11:35.541Z,3.05
2022-12-14T04:14:37.557Z,3.90
2022-12-14T04:17:30.220Z,6.00
2022-12-14T04:20:05.744Z,6.18
2022-12-14T04:22:38.733Z,3.85
2022-12-14T04:25:37.695Z,4.90
2022-12-14T04:28:39.089Z,6.45
2022-12-14T04:31:11.337Z,9.55
2022-12-14T04:33:49.130Z,10.52
2022-12-14T04:36:42.643Z,5.78
2022-12-14T04:39:17.118Z,5.60
2022-12-14T04:41:49.101Z,5.72
2022-12-14T04:44:29.458Z,6.70
2022-12-14T04:46:59.751Z,9.73
2022-12-14T04:49:29.472Z,6.63
2022-12-14T04:52:01.961Z,8.50
2022-12-14T04:55:00.903Z,5.97
2022-12-14T04:57:34.943Z,5.05
2022-12-14T05:00:03.916Z,6.65
2022-12-14T05:02:47.755Z,6.78
2022-12-14T05:07:55.207Z,8.40
2022-12-14T05:11:04.738Z,7.57
2022-12-14T05:13:48.957Z,8.80
2022-12-14T05:16:22.873Z,6.50
2022-12-14T05:21:47.374Z,6.47
2022-12-14T05:24:16.585Z,6.45
2022-12-14T05:26:44.656Z,5.22
2022-12-14T05:29:12.847Z,6.03
2022-12-14T05:31:40.704Z,5.93
2022-12-14T05:34:08.349Z,5.63
2022-12-14T05:36:36.027Z,7.15
2022-12-14T05:39:03.879Z,7.63
2022-12-14T05:41:31.543Z,8.25
2022-12-14T05:43:59.278Z,9.40
2022-12-14T05:46:27.008Z,9.45
2022-12-14T05:48:54.984Z,8.93
2022-12-14T05:51:22.722Z,9.85
2022-12-14T05:53:50.432Z,9.65
2022-12-14T05:56:18.293Z,8.63
2022-12-14T05:58:50.673Z,9.55
2022-12-14T06:01:19.616Z,7.18
2022-12-14T06:03:48.309Z,7.63
2022-12-14T06:06:16.029Z,6.20
2022-12-14T06:08:46.637Z,8.55
2022-12-14T06:11:19.647Z,8.52
2022-12-14T06:13:48.400Z,10.15
2022-12-14T06:16:26.046Z,9.85
2022-12-14T06:18:56.451Z,11.18
2022-12-14T06:21:29.864Z,12.70
2022-12-14T06:23:58.515Z,11.57
2022-12-14T06:26:27.882Z,11.02
2022-12-14T06:28:56.734Z,9.85
2022-12-14T06:31:30.090Z,8.27
2022-12-14T06:34:00.116Z,9.07
2022-12-14T06:36:36.802Z,8.50
2022-12-14T06:39:08.867Z,6.38
2022-12-14T06:41:36.583Z,9.07
2022-12-14T06:44:05.936Z,7.05
2022-12-14T06:46:34.229Z,8.20
2022-12-14T06:49:02.366Z,7.15
2022-12-14T06:51:30.129Z,8.27
2022-12-14T06:53:58.706Z,7.25
2022-12-14T06:56:28.295Z,8.88
2022-12-14T06:58:56.878Z,9.93
2022-12-14T07:01:25.986Z,11.40
2022-12-14T07:03:56.385Z,10.60
2022-12-14T07:06:25.407Z,10.20
2022-12-14T07:08:55.817Z,9.00
2022-12-14T07:11:24.358Z,10.63
2022-12-14T07:13:53.088Z,11.85
2022-12-14T07:16:23.205Z,10.07
2022-12-14T07:18:52.002Z,9.60
2022-12-14T07:21:21.094Z,10.98
2022-12-14T07:23:50.275Z,11.15
2022-12-14T07:26:26.922Z,10.40
2022-12-14T07:28:55.018Z,10.60
2022-12-14T07:31:25.228Z,10.15
2022-12-14T07:33:57.668Z,12.63
2022-12-14T07:36:27.472Z,13.25
2022-12-14T07:38:56.425Z,13.50
2022-12-14T07:41:31.068Z,13.98
2022-12-14T07:44:01.281Z,11.45
2022-12-14T07:46:30.794Z,11.18
2022-12-14T07:48:59.948Z,11.05
2022-12-14T07:51:33.492Z,11.45
2022-12-14T07:54:02.161Z,11.32
2022-12-14T07:56:32.950Z,12.20
2022-12-14T07:59:02.781Z,13.80
2022-12-14T08:01:34.107Z,12.52
2022-12-14T08:04:11.263Z,12.65
2022-12-14T08:06:40.163Z,11.80
2022-12-14T08:09:09.618Z,11.50
2022-12-14T08:11:37.886Z,12.52
2022-12-14T08:14:11.282Z,12.05
2022-12-14T08:16:38.910Z,11.45
2022-12-14T08:19:06.642Z,12.25
2022-12-14T08:21:34.487Z,11.50
2022-12-14T08:24:02.218Z,12.73
2022-12-14T08:26:35.204Z,11.32
2022-12-14T08:29:04.740Z,12.02
2022-12-14T08:31:34.717Z,11.70
2022-12-14T08:34:03.338Z,11.70
2022-12-14T08:36:35.590Z,11.32
2022-12-14T08:39:10.009Z,11.32
2022-12-14T08:41:37.704Z,11.80
2022-12-14T08:44:05.980Z,11.80
2022-12-14T08:46:35.533Z,11.57
2022-12-14T08:49:03.834Z,10.02
2022-12-14T08:51:31.605Z,10.52
2022-12-14T08:53:59.327Z,11.30
2022-12-14T08:56:28.455Z,9.80
2022-12-14T08:58:57.264Z,10.38
2022-12-14T09:01:33.926Z,8.98
2022-12-14T09:04:05.302Z,9.75
2022-12-14T09:06:38.283Z,9.80
2022-12-14T09:09:15.245Z,10.23
2022-12-14T09:11:45.180Z,10.77
2022-12-14T09:14:13.153Z,11.68
2022-12-14T09:16:41.205Z,11.95
2022-12-14T09:19:09.017Z,11.80
2022-12-14T09:21:36.729Z,12.15
2022-12-14T09:24:06.764Z,10.45
2022-12-14T09:26:34.390Z,9.60
2022-12-14T09:29:02.095Z,10.75
2022-12-14T09:31:29.796Z,10.73
2022-12-14T09:33:59.557Z,12.40
2022-12-14T09:36:29.139Z,12.68
2022-12-14T09:38:58.107Z,12.98
2022-12-14T09:41:34.799Z,16.20
2022-12-14T09:44:27.444Z,14.32
2022-12-14T09:47:06.128Z,14.10
2022-12-14T09:49:54.989Z,12.30
2022-12-14T09:53:01.676Z,13.63
2022-12-14T09:55:49.556Z,11.48
2022-12-14T09:58:22.461Z,9.40
2022-12-14T10:01:14.315Z,9.55
2022-12-14T10:03:48.239Z,8.88
2022-12-14T10:06:41.597Z,11.68
2022-12-14T10:09:35.566Z,12.68
2022-12-14T10:12:17.851Z,12.52
2022-12-14T10:15:02.339Z,11.80
2022-12-14T10:17:58.092Z,11.60
2022-12-14T10:20:28.562Z,9.55
2022-12-14T10:22:56.764Z,9.38
2022-12-14T10:25:29.932Z,10.75
2022-12-14T10:28:11.794Z,9.20
2022-12-14T10:30:42.604Z,10.38
2022-12-14T10:33:23.005Z,10.50
2022-12-14T10:35:55.790Z,10.15
2022-12-14T10:38:27.376Z,9.73
2022-12-14T10:41:11.961Z,9.85
2022-12-14T10:44:19.852Z,13.50
2022-12-14T10:46:50.677Z,11.38
2022-12-14T10:49:48.378Z,11.48
2022-12-14T10:52:23.359Z,12.32
2022-12-14T10:54:54.934Z,13.32
2022-12-14T10:57:27.898Z,12.38
2022-12-14T11:00:08.525Z,13.00
2022-12-14T11:02:43.617Z,10.20
2022-12-14T11:08:07.607Z,15.70
2022-12-14T11:10:39.871Z,14.27
2022-12-14T11:13:15.383Z,11.18
2022-12-14T11:15:44.682Z,14.35
2022-12-14T11:18:18.387Z,12.77
2022-12-14T11:23:35.597Z,12.73
2022-12-14T11:26:06.663Z,12.85
2022-12-14T11:28:56.642Z,12.65
2022-12-14T11:31:30.130Z,16.33
2022-12-14T11:33:59.400Z,17.05
2022-12-14T11:36:33.005Z,14.15
2022-12-14T11:39:15.742Z,11.95
2022-12-14T11:42:04.656Z,13.40
2022-12-14T11:44:39.863Z,18.40
2022-12-14T11:47:12.190Z,14.98
2022-12-14T11:49:39.848Z,14.95
2022-12-14T11:52:18.674Z,15.98
2022-12-14T11:55:11.702Z,14.82
2022-12-14T11:57:53.478Z,12.68
2022-12-14T12:00:23.688Z,17.40
2022-12-14T12:03:04.356Z,18.38
2022-12-14T12:05:33.928Z,14.73
2022-12-14T12:08:03.125Z,12.63
2022-12-14T12:10:42.656Z,12.35
2022-12-14T12:13:41.024Z,10.48
2022-12-14T12:16:12.021Z,12.00
2022-12-14T12:18:57.145Z,10.32
2022-12-14T12:21:32.396Z,12.00
2022-12-14T12:24:18.741Z,14.30
2022-12-14T12:26:51.968Z,10.43
2022-12-14T12:29:46.928Z,12.63
2022-12-14T12:32:39.825Z,12.25
2022-12-14T12:38:03.673Z,10.52
2022-12-14T12:40:40.944Z,9.57
2022-12-14T12:43:24.703Z,11.18
2022-12-14T12:46:28.910Z,12.38
2022-12-14T12:49:11.145Z,10.63
2022-12-14T12:51:50.473Z,12.43
2022-12-14T12:54:30.292Z,10.85
2022-12-14T12:57:00.198Z,11.18
2022-12-14T12:59:30.475Z,10.90
2022-12-14T13:02:02.898Z,10.93
2022-12-14T13:04:38.325Z,12.73
2022-12-14T13:07:16.329Z,12.40
2022-12-14T13:09:50.463Z,8.60
2022-12-14T13:12:49.312Z,11.27
2022-12-14T13:15:57.232Z,11.60
2022-12-14T13:18:56.478Z,11.80
2022-12-14T13:21:39.192Z,11.07
2022-12-14T13:24:13.058Z,10.65
2022-12-14T13:26:58.492Z,12.50
2022-12-14T13:29:35.151Z,8.32
2022-12-14T13:32:33.828Z,9.23
2022-12-14T13:35:32.687Z,8.38
2022-12-14T13:38:33.134Z,8.52
2022-12-14T13:41:19.781Z,9.63
2022-12-14T13:43:53.440Z,8.18
2022-12-14T13:46:24.259Z,8.05
2022-12-14T13:48:55.856Z,6.22
2022-12-14T13:51:40.943Z,9.45
2022-12-14T13:54:29.648Z,9.38
2022-12-14T13:57:05.657Z,9.88
2022-12-14T13:59:40.557Z,9.60
2022-12-14T14:02:28.203Z,7.90
2022-12-14T14:05:19.097Z,7.60
2022-12-14T14:07:54.059Z,7.57
2022-12-14T14:10:35.132Z,8.65
2022-12-14T14:13:22.559Z,8.52
2022-12-14T14:16:26.853Z,8.45
2022-12-14T14:18:53.081Z,9.75
2022-12-14T14:21:20.971Z,9.07
2022-12-14T14:23:58.796Z,8.23
2022-12-14T14:26:34.435Z,7.80
2022-12-14T14:29:23.855Z,10.50
2022-12-14T14:31:58.909Z,8.63
2022-12-14T14:34:48.830Z,9.65
2022-12-14T14:37:22.492Z,9.82
2022-12-14T14:40:29.255Z,11.07
2022-12-14T14:43:27.533Z,10.70
2022-12-14T14:45:58.848Z,12.55
2022-12-14T14:48:38.113Z,16.65
2022-12-14T14:51:11.904Z,17.58
2022-12-14T14:53:39.854Z,13.57
2022-12-14T14:56:35.065Z,14.23
2022-12-14T14:59:37.193Z,13.85
2022-12-14T15:02:38.515Z,12.13
2022-12-14T15:07:56.598Z,13.52
2022-12-14T15:10:39.339Z,11.20
2022-12-14T15:13:15.208Z,10.93
2022-12-14T15:15:48.797Z,19.63
2022-12-14T15:18:20.814Z,14.40
2022-12-14T15:20:58.258Z,13.32
2022-12-14T15:23:31.246Z,16.38
2022-12-14T15:26:04.558Z,15.90
2022-12-14T15:28:32.483Z,14.63
2022-12-14T15:31:00.507Z,16.42
2022-12-14T15:33:33.592Z,14.85
2022-12-14T15:36:05.653Z,14.30
2022-12-14T15:38:37.006Z,15.70
2022-12-14T15:41:16.360Z,15.18
2022-12-14T15:43:46.534Z,11.23
2022-12-14T15:46:26.460Z,14.18
2022-12-14T15:49:06.227Z,13.32
2022-12-14T15:51:38.097Z,15.52
2022-12-14T15:54:07.937Z,13.48
2022-12-14T15:56:44.979Z,15.75
2022-12-14T15:59:31.962Z,17.45
2022-12-14T16:02:07.324Z,16.83
2022-12-14T16:04:37.147Z,15.00
2022-12-14T16:07:13.562Z,17.95
2022-12-14T16:09:50.489Z,15.70
2022-12-14T16:12:45.465Z,14.30
2022-12-14T16:15:26.286Z,17.98
2022-12-14T16:18:01.605Z,15.77
2022-12-14T16:20:36.374Z,14.00
2022-12-14T16:23:16.041Z,16.15
2022-12-14T16:26:03.534Z,21.67
2022-12-14T16:28:37.359Z,15.80
2022-12-14T16:31:08.439Z,18.30
2022-12-14T16:33:37.663Z,16.80
2022-12-14T16:36:18.990Z,15.23
2022-12-14T16:39:02.470Z,17.77
2022-12-14T16:41:38.411Z,14.60
2022-12-14T16:44:20.094Z,21.25
2022-12-14T16:47:04.108Z,18.88
2022-12-14T16:49:40.571Z,13.13
2022-12-14T16:52:34.098Z,15.73
2022-12-14T16:55:17.316Z,16.30
2022-12-14T17:00:34.120Z,18.27
2022-12-14T17:03:23.406Z,18.38
2022-12-14T17:05:55.518Z,17.08
2022-12-14T17:08:23.136Z,14.52
2022-12-14T17:10:51.207Z,14.85
2022-12-14T17:13:18.846Z,14.65
2022-12-14T17:16:04.105Z,17.27
2022-12-14T17:18:39.633Z,14.98
2022-12-14T17:21:09.139Z,16.20
2022-12-14T17:23:42.360Z,13.20
2022-12-14T17:26:42.424Z,15.52
2022-12-14T17:29:25.905Z,15.23
2022-12-14T17:31:58.168Z,12.05
2022-12-14T17:34:25.923Z,12.93
2022-12-14T17:36:53.553Z,15.68
2022-12-14T17:39:21.117Z,17.90
2022-12-14T17:41:49.098Z,13.35
2022-12-14T17:44:20.021Z,10.98
2022-12-14T17:46:50.207Z,15.90
2022-12-14T17:49:34.334Z,10.15
2022-12-14T17:52:04.699Z,13.52
2022-12-14T17:54:32.672Z,14.38
2022-12-14T17:57:00.808Z,14.18
2022-12-14T17:59:28.565Z,11.70
2022-12-14T18:01:56.354Z,10.98
2022-12-14T18:04:24.003Z,6.75
2022-12-14T18:06:51.877Z,12.73
2022-12-14T18:09:19.467Z,11.23
2022-12-14T18:12:14.421Z,9.48
2022-12-14T18:14:34.463Z,13.40
2022-12-14T18:17:04.370Z,11.02
2022-12-14T18:19:34.138Z,12.35
2022-12-14T18:22:01.692Z,10.40
2022-12-14T18:24:29.274Z,10.60
2022-12-14T18:26:56.949Z,12.15
2022-12-14T18:29:24.874Z,9.93
2022-12-14T18:31:53.088Z,14.52
2022-12-14T18:34:20.614Z,13.00
2022-12-14T18:36:48.339Z,14.85
2022-12-14T18:39:15.796Z,13.38
2022-12-14T18:41:43.333Z,12.10
2022-12-14T18:44:11.573Z,10.90
2022-12-14T18:46:39.843Z,9.45
2022-12-14T18:49:07.448Z,12.52
2022-12-14T18:51:35.071Z,13.32
2022-12-14T18:54:03.630Z,12.25
2022-12-14T18:56:31.314Z,9.18
2022-12-14T18:59:00.666Z,13.75
2022-12-14T19:01:28.520Z,12.68
2022-12-14T19:03:56.332Z,13.18
2022-12-14T19:09:14.859Z,11.45
2022-12-14T19:11:42.892Z,9.63
2022-12-14T19:14:10.943Z,12.13
2022-12-14T19:16:38.619Z,9.32
2022-12-14T19:19:06.379Z,13.75
2022-12-14T19:21:33.880Z,12.35
2022-12-14T19:24:01.474Z,11.90
2022-12-14T19:26:29.710Z,12.00
2022-12-14T19:28:57.462Z,9.88
2022-12-14T19:31:25.067Z,9.10
2022-12-14T19:33:54.042Z,12.40
2022-12-14T19:36:21.655Z,9.32
2022-12-14T19:38:49.666Z,5.22
2022-12-14T19:41:20.813Z,12.85
2022-12-14T19:43:48.726Z,10.38
2022-12-14T19:46:17.926Z,12.27
2022-12-14T19:48:46.142Z,13.20
2022-12-14T19:51:14.543Z,10.25
2022-12-14T19:53:43.670Z,9.48
2022-12-14T19:56:13.647Z,11.00
2022-12-14T19:58:41.405Z,11.50
2022-12-14T20:01:11.108Z,10.55
2022-12-14T20:03:39.281Z,8.23
2022-12-14T20:06:08.152Z,10.70
2022-12-14T20:08:36.455Z,8.23
2022-12-14T20:11:08.885Z,9.30
2022-12-14T20:13:37.046Z,9.82
2022-12-14T20:16:04.759Z,10.23
2022-12-14T20:18:32.226Z,10.02
2022-12-14T20:21:06.093Z,9.55
2022-12-14T20:23:37.873Z,8.98
2022-12-14T20:26:08.352Z,9.48
2022-12-14T20:28:36.129Z,8.73
2022-12-14T20:31:07.649Z,9.68
2022-12-14T20:33:36.578Z,10.60
2022-12-14T20:36:04.721Z,9.43
2022-12-14T20:38:32.279Z,8.43
2022-12-14T20:41:06.607Z,7.70
2022-12-14T20:43:36.235Z,7.70
2022-12-14T20:46:04.742Z,8.18
2022-12-14T20:48:33.404Z,10.27
2022-12-14T20:51:04.150Z,10.10
2022-12-14T20:53:32.034Z,8.48
2022-12-14T20:56:05.197Z,9.23
2022-12-14T20:58:32.695Z,8.50
2022-12-14T21:01:09.444Z,9.95
2022-12-14T21:03:37.323Z,8.35
2022-12-14T21:06:05.511Z,10.93
2022-12-14T21:08:53.039Z,7.45
2022-12-14T21:11:38.933Z,7.07
2022-12-14T21:14:06.409Z,7.18
2022-12-14T21:16:34.278Z,9.80
2022-12-14T21:19:01.927Z,9.25
2022-12-14T21:21:29.473Z,10.15
2022-12-14T21:23:57.268Z,9.23
2022-12-14T21:26:26.957Z,10.70
2022-12-14T21:28:55.880Z,10.18
2022-12-14T21:31:23.603Z,7.82
2022-12-14T21:33:51.206Z,8.43
2022-12-14T21:36:18.607Z,9.68
2022-12-14T21:38:46.125Z,8.35
2022-12-14T21:41:31.854Z,8.98
2022-12-14T21:44:00.166Z,11.82
2022-12-14T21:46:29.506Z,8.80
2022-12-14T21:48:57.425Z,10.07
2022-12-14T21:51:24.921Z,10.43
2022-12-14T21:54:01.105Z,6.90
2022-12-14T21:56:53.228Z,9.07
2022-12-14T21:59:35.607Z,7.35
2022-12-14T22:02:07.900Z,7.00
2022-12-14T22:04:39.778Z,8.70
2022-12-14T22:07:07.726Z,9.38
2022-12-14T22:09:35.171Z,9.63
2022-12-14T22:12:02.720Z,10.43
2022-12-14T22:14:30.225Z,8.73
2022-12-14T22:16:57.936Z,11.40
2022-12-14T22:19:25.953Z,10.90
2022-12-14T22:21:53.956Z,10.00
2022-12-14T22:24:23.501Z,10.05
2022-12-14T22:26:51.520Z,10.02
2022-12-14T22:29:21.690Z,9.70
2022-12-14T22:31:53.088Z,11.70
2022-12-14T22:34:23.406Z,13.45
2022-12-14T22:36:52.847Z,11.93
2022-12-14T22:39:20.629Z,12.90
2022-12-14T22:41:49.556Z,10.13
2022-12-14T22:44:17.063Z,10.40
2022-12-14T22:46:44.644Z,8.88
2022-12-14T22:49:16.938Z,12.20
2022-12-14T22:51:44.536Z,9.82
2022-12-14T22:54:33.126Z,12.27
2022-12-14T22:57:09.424Z,11.75
2022-12-14T22:59:44.184Z,7.93
2022-12-14T23:02:12.023Z,8.35
2022-12-14T23:04:39.846Z,10.70
2022-12-14T23:07:07.776Z,11.65
2022-12-14T23:09:53.722Z,9.13
2022-12-14T23:12:40.327Z,12.60
2022-12-14T23:15:26.575Z,9.13
2022-12-14T23:18:24.102Z,13.02
2022-12-14T23:21:10.306Z,13.68
2022-12-14T23:23:57.655Z,11.45
2022-12-14T23:26:43.911Z,9.13
2022-12-14T23:29:29.624Z,9.85
2022-12-14T23:32:16.131Z,12.48
2022-12-14T23:35:01.869Z,11.77
2022-12-14T23:37:49.246Z,11.20
2022-12-14T23:40:35.104Z,12.38
2022-12-14T23:43:32.757Z,12.95
2022-12-14T23:46:19.955Z,10.85
2022-12-14T23:49:10.435Z,9.05
2022-12-14T23:51:59.662Z,6.55
2022-12-14T23:54:45.286Z,9.57
2022-12-14T23:57:30.950Z,11.45
